createdAt,value
2022-11-14T00:02:32.310Z,26.79
2022-11-14T00:07:32.162Z,28.60
2022-11-14T00:12:32.103Z,31.29
2022-11-14T00:17:32.031Z,22.39
2022-11-14T00:22:31.973Z,22.60
2022-11-14T00:27:31.900Z,24.89
2022-11-14T00:32:31.843Z,26.00
2022-11-14T00:37:31.781Z,23.60
2022-11-14T00:42:31.711Z,21.29
2022-11-14T00:47:31.638Z,21.50
2022-11-14T00:52:31.582Z,21.10
2022-11-14T00:57:31.506Z,21.10
2022-11-14T01:02:31.453Z,18.70
2022-11-14T01:07:31.386Z,21.60
2022-11-14T01:12:31.324Z,17.29
2022-11-14T01:17:31.254Z,23.10
2022-11-14T01:22:31.197Z,15.19
2022-11-14T01:27:31.133Z,18.29
2022-11-14T01:32:31.075Z,14.80
2022-11-14T01:37:31.002Z,16.39
2022-11-14T01:42:30.948Z,15.89
2022-11-14T01:47:30.880Z,17.89
2022-11-14T01:52:30.822Z,16.60
2022-11-14T01:57:30.751Z,17.79
2022-11-14T02:02:30.696Z,14.30
2022-11-14T02:07:30.744Z,16.89
2022-11-14T02:12:30.578Z,12.10
2022-11-14T02:17:31.233Z,13.89
2022-11-14T02:22:30.448Z,20.20
2022-11-14T02:27:30.375Z,19.60
2022-11-14T02:32:45.038Z,18.20
2022-11-14T02:37:31.279Z,22.50
2022-11-14T02:42:30.195Z,24.70
2022-11-14T02:47:30.123Z,26.39
2022-11-14T02:52:30.070Z,22.89
2022-11-14T02:57:29.996Z,31.70
2022-11-14T03:02:29.943Z,22.29
2022-11-14T03:07:29.961Z,22.50
2022-11-14T03:12:29.820Z,22.39
2022-11-14T03:17:29.748Z,23.79
2022-11-14T03:22:29.693Z,26.20
2022-11-14T03:27:29.624Z,34.40
2022-11-14T03:32:29.574Z,36.09
2022-11-14T03:37:29.500Z,33.09
2022-11-14T03:42:29.444Z,27.20
2022-11-14T03:47:29.372Z,29.89
2022-11-14T03:52:29.323Z,29.79
2022-11-14T03:57:29.247Z,29.60
2022-11-14T04:02:29.196Z,23.29
2022-11-14T04:07:29.196Z,27.50
2022-11-14T04:12:29.070Z,22.50
2022-11-14T04:17:29.002Z,28.29
2022-11-14T04:22:28.942Z,18.60
2022-11-14T04:27:28.871Z,21.79
2022-11-14T04:32:28.816Z,15.30
2022-11-14T04:37:28.744Z,28.60
2022-11-14T04:42:28.690Z,22.79
2022-11-14T04:47:28.629Z,17.79
2022-11-14T04:52:28.549Z,21.89
2022-11-14T04:57:28.478Z,16.10
2022-11-14T05:02:28.423Z,15.89
2022-11-14T05:07:28.462Z,23.60
2022-11-14T05:12:28.292Z,21.39
2022-11-14T05:17:28.221Z,18.60
2022-11-14T05:22:28.164Z,15.50
2022-11-14T05:27:28.093Z,15.00
2022-11-14T05:32:28.038Z,18.79
2022-11-14T05:37:27.980Z,14.50
2022-11-14T05:42:27.910Z,16.39
2022-11-14T05:47:27.866Z,22.29
2022-11-14T05:52:27.781Z,18.20
2022-11-14T05:57:27.709Z,16.20
2022-11-14T06:02:27.709Z,23.39
2022-11-14T06:07:27.635Z,28.79
2022-11-14T06:12:27.526Z,22.50
2022-11-14T06:17:27.452Z,18.20
2022-11-14T06:22:27.403Z,20.89
2022-11-14T06:27:27.325Z,14.80
2022-11-14T06:32:27.270Z,24.29
2022-11-14T06:37:31.366Z,15.89
2022-11-14T06:42:27.144Z,11.50
2022-11-14T06:47:27.071Z,12.30
2022-11-14T06:52:27.014Z,11.89
2022-11-14T06:57:26.944Z,11.89
2022-11-14T07:02:26.891Z,21.89
2022-11-14T07:07:28.714Z,12.60
2022-11-14T07:12:26.757Z,12.39
2022-11-14T07:17:30.958Z,11.60
2022-11-14T07:22:26.631Z,12.69
2022-11-14T07:27:26.558Z,16.39
2022-11-14T07:32:26.501Z,12.39
2022-11-14T07:37:26.431Z,11.39
2022-11-14T07:42:26.375Z,12.60
2022-11-14T07:47:26.302Z,13.60
2022-11-14T07:52:26.250Z,14.19
2022-11-14T07:57:26.179Z,11.19
2022-11-14T08:02:26.122Z,12.69
2022-11-14T08:07:26.067Z,12.00
2022-11-14T08:12:26.002Z,13.80
2022-11-14T08:17:25.925Z,14.50
2022-11-14T08:22:25.871Z,12.19
2022-11-14T08:27:25.795Z,9.89
2022-11-14T08:32:25.740Z,11.60
2022-11-14T08:37:25.664Z,9.10
2022-11-14T08:42:25.607Z,7.90
2022-11-14T08:47:25.539Z,9.50
2022-11-14T08:52:25.475Z,7.30
2022-11-14T08:57:25.407Z,7.50
2022-11-14T09:02:25.344Z,8.19
2022-11-14T09:07:25.336Z,8.60
2022-11-14T09:12:25.210Z,12.00
2022-11-14T09:17:25.140Z,9.19
2022-11-14T09:22:25.078Z,5.90
2022-11-14T09:27:25.006Z,7.80
2022-11-14T09:32:24.949Z,8.00
2022-11-14T09:37:24.880Z,5.90
2022-11-14T09:42:24.819Z,6.09
2022-11-14T09:47:24.752Z,7.30
2022-11-14T09:52:24.688Z,6.30
2022-11-14T09:57:24.618Z,7.00
2022-11-14T10:02:24.631Z,12.60
2022-11-14T10:07:24.552Z,7.80
2022-11-14T10:12:24.433Z,6.59
2022-11-14T10:17:24.358Z,11.50
2022-11-14T10:22:24.302Z,9.60
2022-11-14T10:27:24.229Z,8.10
2022-11-14T10:32:24.174Z,11.69
2022-11-14T10:37:24.101Z,9.00
2022-11-14T10:42:24.047Z,9.50
2022-11-14T10:47:23.977Z,8.89
2022-11-14T10:52:23.921Z,9.89
2022-11-14T10:57:23.851Z,10.80
2022-11-14T11:02:23.793Z,11.30
2022-11-14T11:07:23.819Z,9.39
2022-11-14T11:12:23.753Z,10.10
2022-11-14T11:17:25.092Z,9.60
2022-11-14T11:22:23.530Z,13.69
2022-11-14T11:27:23.459Z,9.60
2022-11-14T11:32:23.392Z,11.10
2022-11-14T11:37:23.379Z,11.39
2022-11-14T11:42:23.259Z,12.39
2022-11-14T11:47:23.204Z,11.39
2022-11-14T11:52:23.128Z,12.19
2022-11-14T11:57:23.068Z,12.10
2022-11-14T12:02:23.154Z,12.50
2022-11-14T12:07:22.991Z,13.50
2022-11-14T12:12:22.866Z,17.20
2022-11-14T12:17:22.811Z,15.10
2022-11-14T12:22:22.736Z,16.10
2022-11-14T12:27:22.762Z,18.89
2022-11-14T12:32:22.604Z,16.70
2022-11-14T12:37:22.652Z,14.89
2022-11-14T12:42:22.480Z,13.30
2022-11-14T12:47:22.423Z,16.60
2022-11-14T12:52:22.345Z,15.39
2022-11-14T12:57:22.286Z,16.79
2022-11-14T13:02:22.767Z,14.69
2022-11-14T13:07:22.306Z,16.60
2022-11-14T13:12:22.081Z,15.10
2022-11-14T13:17:22.025Z,19.39
2022-11-14T13:22:21.951Z,17.20
2022-11-14T13:27:30.500Z,18.39
2022-11-14T13:32:22.847Z,19.20
2022-11-14T13:37:21.761Z,16.10
2022-11-14T13:42:21.689Z,18.10
2022-11-14T13:47:21.635Z,18.60
2022-11-14T13:52:21.558Z,20.29
2022-11-14T13:57:21.507Z,18.39
2022-11-14T14:02:21.430Z,17.20
2022-11-14T14:07:21.409Z,18.20
2022-11-14T14:12:21.298Z,14.80
2022-11-14T14:17:21.239Z,15.30
2022-11-14T14:22:21.168Z,13.30
2022-11-14T14:27:21.110Z,17.79
2022-11-14T14:32:21.037Z,14.50
2022-11-14T14:37:20.990Z,15.10
2022-11-14T14:42:20.905Z,14.39
2022-11-14T14:47:20.849Z,15.39
2022-11-14T14:52:20.779Z,9.50
2022-11-14T14:57:23.369Z,11.50
2022-11-14T15:02:20.649Z,10.69
2022-11-14T15:07:20.701Z,10.10
2022-11-14T15:12:20.516Z,15.39
2022-11-14T15:17:20.468Z,11.80
2022-11-14T15:22:20.385Z,12.80
2022-11-14T15:27:20.325Z,10.10
2022-11-14T15:32:20.253Z,10.80
2022-11-14T15:37:20.196Z,9.00
2022-11-14T15:42:20.120Z,9.69
2022-11-14T15:47:20.075Z,8.10
2022-11-14T15:52:19.987Z,7.09
2022-11-14T15:57:19.930Z,9.80
2022-11-14T16:02:19.864Z,9.89
2022-11-14T16:07:19.861Z,9.19
2022-11-14T16:12:19.726Z,11.50
2022-11-14T16:17:19.669Z,9.19
2022-11-14T16:22:19.591Z,8.50
2022-11-14T16:27:19.535Z,9.00
2022-11-14T16:32:19.462Z,11.50
2022-11-14T16:37:19.403Z,12.00
2022-11-14T16:42:19.330Z,9.19
2022-11-14T16:47:19.273Z,8.19
2022-11-14T16:52:19.204Z,14.00
2022-11-14T16:57:19.142Z,9.30
2022-11-14T17:02:19.160Z,10.19
2022-11-14T17:07:22.876Z,13.39
2022-11-14T17:12:18.942Z,11.00
2022-11-14T17:17:18.888Z,13.10
2022-11-14T17:22:18.810Z,12.39
2022-11-14T17:27:18.752Z,12.50
2022-11-14T17:32:18.679Z,19.50
2022-11-14T17:37:18.623Z,18.10
2022-11-14T17:42:18.550Z,11.10
2022-11-14T17:47:18.493Z,16.70
2022-11-14T17:52:18.418Z,12.80
2022-11-14T17:57:18.363Z,12.60
2022-11-14T18:02:18.291Z,18.39
2022-11-14T18:07:18.610Z,19.20
2022-11-14T18:12:18.158Z,14.10
2022-11-14T18:17:18.114Z,14.69
2022-11-14T18:22:18.025Z,14.30
2022-11-14T18:27:17.970Z,12.50
2022-11-14T18:32:17.897Z,14.10
2022-11-14T18:37:17.838Z,14.30
2022-11-14T18:42:17.763Z,13.50
2022-11-14T18:47:17.704Z,15.10
2022-11-14T18:52:17.911Z,17.70
2022-11-14T18:57:17.572Z,14.19
2022-11-14T19:02:17.568Z,16.29
2022-11-14T19:07:17.478Z,14.69
2022-11-14T19:12:17.387Z,16.10
2022-11-14T19:17:17.312Z,14.69
2022-11-14T19:22:17.269Z,14.80
2022-11-14T19:27:17.177Z,16.20
2022-11-14T19:32:17.107Z,27.00
2022-11-14T19:37:17.048Z,20.70
2022-11-14T19:42:16.976Z,16.60
2022-11-14T19:47:16.929Z,17.79
2022-11-14T19:52:18.050Z,15.89
2022-11-14T19:57:16.786Z,16.70
2022-11-14T20:02:16.715Z,15.69
2022-11-14T20:07:16.737Z,20.00
2022-11-14T20:12:16.606Z,19.70
2022-11-14T20:17:16.528Z,22.70
2022-11-14T20:22:16.453Z,17.00
2022-11-14T20:27:16.396Z,19.29
2022-11-14T20:32:16.327Z,16.20
2022-11-14T20:37:16.268Z,14.30
2022-11-14T20:42:16.193Z,17.10
2022-11-14T20:47:16.428Z,17.00
2022-11-14T20:52:16.063Z,15.60
2022-11-14T20:57:16.002Z,17.29
2022-11-14T21:02:16.028Z,20.89
2022-11-14T21:07:15.931Z,17.89
2022-11-14T21:12:15.798Z,18.10
2022-11-14T21:17:15.744Z,19.10
2022-11-14T21:22:15.688Z,18.60
2022-11-14T21:27:15.608Z,16.39
2022-11-14T21:32:15.541Z,18.70
2022-11-14T21:37:15.478Z,17.50
2022-11-14T21:42:18.433Z,18.00
2022-11-14T21:47:15.348Z,16.29
2022-11-14T21:52:15.273Z,13.80
2022-11-14T21:57:15.216Z,18.39
2022-11-14T22:02:15.197Z,15.80
2022-11-14T22:07:15.126Z,13.80
2022-11-14T22:12:15.010Z,16.29
2022-11-14T22:17:14.967Z,17.29
2022-11-14T22:22:14.881Z,16.89
2022-11-14T22:27:14.825Z,14.39
2022-11-14T22:32:14.750Z,14.50
2022-11-14T22:37:14.728Z,16.50
2022-11-14T22:42:14.620Z,15.00
2022-11-14T22:47:14.640Z,19.20
2022-11-14T22:52:14.547Z,14.89
2022-11-14T22:57:14.431Z,13.69
2022-11-14T23:02:14.357Z,15.89
2022-11-14T23:07:14.407Z,14.80
2022-11-14T23:12:14.225Z,15.19
2022-11-14T23:17:14.188Z,11.69
2022-11-14T23:22:14.093Z,15.89
2022-11-14T23:27:14.035Z,15.89
2022-11-14T23:32:13.964Z,14.69
2022-11-14T23:37:13.904Z,16.70
2022-11-14T23:42:13.827Z,14.80
2022-11-14T23:47:13.769Z,14.69
2022-11-14T23:52:13.697Z,12.39
2022-11-14T23:57:13.639Z,14.89
